Time;durP1;ratioP1;P1;durP2;ratioP2;P2;SDS_P1;SDS_P2;PMS_P1;PMS_P2;Temp;Humidity;BMP_temperature;BMP_pressure;BME280_temperature;BME280_humidity;BME280_pressure;Samples;Min_cycle;Max_cycle;Signal;HPM_P1;HPM_P2
2020/12/07 00:02:18;;;;;;;110.18;38.30;;;5.60;99.90;;;;;;5019624;28;20033;-75
2020/12/07 00:04:43;;;;;;;162.50;48.78;;;5.60;99.90;;;;;;5042925;28;20045;-75
2020/12/07 00:07:09;;;;;;;113.82;37.13;;;5.70;99.90;;;;;;5050465;28;20052;-76
2020/12/07 00:09:55;;;;;;;208.32;52.20;;;5.60;99.90;;;;;;5034492;28;20138;-75
2020/12/07 00:12:28;;;;;;;120.63;36.95;;;5.60;99.90;;;;;;5048065;28;20057;-75
2020/12/07 00:14:54;;;;;;;96.18;31.38;;;5.60;99.90;;;;;;5049210;28;20130;-75
2020/12/07 00:17:40;;;;;;;76.22;27.17;;;5.60;99.90;;;;;;5016639;28;20045;-74
2020/12/07 00:20:07;;;;;;;52.75;21.50;;;5.60;99.90;;;;;;5049457;28;20044;-75
2020/12/07 00:22:33;;;;;;;59.88;22.88;;;5.60;99.90;;;;;;5051964;28;20040;-74
2020/12/07 00:25:01;;;;;;;54.08;22.30;;;5.60;99.90;;;;;;5050091;28;20628;-75
2020/12/07 00:27:28;;;;;;;44.50;19.75;;;5.60;99.90;;;;;;5038483;28;20084;-75
2020/12/07 00:29:55;;;;;;;60.65;23.30;;;5.60;99.90;;;;;;5045787;28;20033;-74
2020/12/07 00:32:40;;;;;;;48.08;20.98;;;5.60;99.90;;;;;;5033644;28;20434;-75
2020/12/07 00:35:07;;;;;;;61.85;24.75;;;5.60;99.90;;;;;;5037966;28;20072;-74
2020/12/07 00:37:33;;;;;;;70.55;24.35;;;5.60;99.90;;;;;;5034009;28;20068;-74
2020/12/07 00:39:58;;;;;;;57.85;22.88;;;5.60;99.90;;;;;;5039900;28;20037;-75
2020/12/07 00:42:24;;;;;;;48.75;21.17;;;5.50;99.90;;;;;;5033424;28;20045;-75
2020/12/07 00:44:50;;;;;;;62.45;24.35;;;5.50;99.90;;;;;;5033524;28;20029;-74
2020/12/07 00:47:16;;;;;;;56.70;24.00;;;5.50;99.90;;;;;;5045196;28;20112;-75
2020/12/07 00:50:02;;;;;;;37.75;18.85;;;5.50;99.90;;;;;;5023828;28;20404;-76
2020/12/07 00:52:47;;;;;;;45.50;20.02;;;5.50;99.90;;;;;;5024127;28;20122;-75
2020/12/07 00:55:13;;;;;;;49.85;20.23;;;5.50;99.90;;;;;;5037378;28;20041;-75
2020/12/07 00:57:39;;;;;;;68.50;23.45;;;5.50;99.90;;;;;;5050561;28;20040;-76
2020/12/07 01:00:25;;;;;;;57.97;23.23;;;5.50;99.90;;;;;;5037404;28;20099;-75
2020/12/07 01:02:51;;;;;;;55.80;22.58;;;5.50;99.90;;;;;;5060026;28;20045;-74
2020/12/07 01:05:16;;;;;;;47.90;20.55;;;5.50;99.90;;;;;;5040835;28;20061;-74
2020/12/07 01:07:42;;;;;;;50.45;20.20;;;5.50;99.90;;;;;;5041172;28;20434;-75
2020/12/07 01:10:08;;;;;;;65.32;25.08;;;5.40;99.90;;;;;;5027077;28;20034;-75
2020/12/07 01:12:34;;;;;;;63.15;23.83;;;5.40;99.90;;;;;;5042934;28;20029;-75
2020/12/07 01:15:00;;;;;;;72.60;24.98;;;5.50;99.90;;;;;;5032164;28;20036;-74
2020/12/07 01:17:25;;;;;;;63.15;23.52;;;5.40;99.90;;;;;;5049987;28;20078;-75
2020/12/07 01:19:52;;;;;;;57.40;25.25;;;5.40;99.90;;;;;;5048364;28;20064;-75
2020/12/07 01:22:18;;;;;;;92.65;31.33;;;5.40;99.90;;;;;;5051134;28;20033;-75
2020/12/07 01:24:44;;;;;;;63.35;25.98;;;5.40;99.90;;;;;;5047151;28;20033;-75
2020/12/07 01:27:30;;;;;;;59.10;23.23;;;5.40;99.90;;;;;;5044540;28;20127;-75
2020/12/07 01:29:55;;;;;;;68.70;22.92;;;5.40;99.90;;;;;;5043447;28;20124;-75
2020/12/07 01:32:21;;;;;;;69.32;26.98;;;5.40;99.90;;;;;;5050565;28;20041;-76
2020/12/07 01:35:07;;;;;;;75.18;24.60;;;5.30;99.90;;;;;;5014744;28;20064;-75
2020/12/07 01:37:33;;;;;;;82.07;29.42;;;5.40;99.90;;;;;;5045147;28;20041;-76
2020/12/07 01:39:59;;;;;;;102.35;32.92;;;5.40;99.90;;;;;;5046037;28;20037;-76
2020/12/07 01:42:25;;;;;;;86.03;28.20;;;5.30;99.90;;;;;;5049383;28;20429;-76
2020/12/07 01:44:52;;;;;;;72.97;28.10;;;5.30;99.90;;;;;;5050205;28;20398;-76
2020/12/07 01:47:21;;;;;;;67.38;25.27;;;5.70;99.90;;;;;;5048580;28;20106;-75
2020/12/07 01:49:50;;;;;;;77.50;26.50;;;5.40;99.90;;;;;;5052599;28;20432;-76
2020/12/07 01:52:36;;;;;;;54.38;22.50;;;5.30;99.90;;;;;;5038873;28;20037;-76
2020/12/07 01:55:02;;;;;;;49.08;21.08;;;5.30;99.90;;;;;;5054038;28;20036;-75
2020/12/07 01:57:28;;;;;;;70.78;23.33;;;5.30;99.90;;;;;;5035279;28;20492;-77
2020/12/07 01:59:54;;;;;;;62.53;25.05;;;5.30;99.90;;;;;;5036114;28;20594;-76
2020/12/07 02:02:40;;;;;;;79.25;27.35;;;5.30;99.90;;;;;;5021957;28;20490;-76
2020/12/07 02:05:05;;;;;;;114.22;31.50;;;5.30;99.90;;;;;;5053387;28;20510;-76
2020/12/07 02:07:31;;;;;;;80.22;26.05;;;5.30;99.90;;;;;;5035264;28;20052;-76
2020/12/07 02:09:57;;;;;;;62.67;25.67;;;5.30;99.90;;;;;;5053551;28;20132;-77
2020/12/07 02:12:22;;;;;;;74.90;24.67;;;5.20;99.90;;;;;;5053000;28;20072;-76
2020/12/07 02:14:48;;;;;;;75.55;25.25;;;5.20;99.90;;;;;;5050995;28;20041;-77
2020/12/07 02:17:34;;;;;;;75.57;25.65;;;5.20;99.90;;;;;;5019269;28;20091;-78
2020/12/07 02:20:20;;;;;;;80.95;25.40;;;5.20;99.90;;;;;;5018058;28;20041;-77
2020/12/07 02:22:45;;;;;;;64.72;24.23;;;5.20;99.90;;;;;;5030589;28;20048;-77
2020/12/07 02:25:31;;;;;;;55.53;23.65;;;5.20;99.90;;;;;;5030154;28;20044;-80
2020/12/07 02:27:57;;;;;;;55.40;21.48;;;5.20;99.90;;;;;;5055516;28;20044;-78
2020/12/07 02:30:24;;;;;;;69.50;24.60;;;5.20;99.90;;;;;;5035434;28;20206;-78
2020/12/07 02:33:09;;;;;;;76.18;25.92;;;5.20;99.90;;;;;;5026307;28;20048;-77
2020/12/07 02:35:35;;;;;;;76.15;25.52;;;5.20;99.90;;;;;;5052934;28;20047;-77
2020/12/07 02:38:01;;;;;;;78.18;28.13;;;5.20;99.90;;;;;;5033975;28;20061;-78
2020/12/07 02:40:27;;;;;;;69.63;25.67;;;5.20;99.90;;;;;;5040305;28;20797;-77
2020/12/07 02:42:53;;;;;;;75.55;27.00;;;5.20;99.90;;;;;;5026360;28;20034;-77
2020/12/07 02:45:39;;;;;;;62.63;24.80;;;5.20;99.90;;;;;;5035817;28;20045;-77
2020/12/07 02:48:04;;;;;;;72.68;25.88;;;5.10;99.90;;;;;;5043279;28;20037;-77
2020/12/07 02:50:31;;;;;;;68.07;25.70;;;5.20;99.90;;;;;;5053316;28;20120;-76
2020/12/07 02:52:57;;;;;;;56.15;23.33;;;5.10;99.90;;;;;;5052193;28;20109;-76
2020/12/07 02:55:23;;;;;;;48.85;21.20;;;5.10;99.90;;;;;;5035928;28;20123;-76
2020/12/07 02:57:49;;;;;;;56.92;23.20;;;5.10;99.90;;;;;;5052682;28;20449;-77
2020/12/07 03:00:16;;;;;;;53.00;21.17;;;5.10;99.90;;;;;;5034901;28;20572;-77
2020/12/07 03:02:41;;;;;;;44.05;20.30;;;5.10;99.90;;;;;;5033711;28;20405;-77
2020/12/07 03:05:08;;;;;;;50.70;21.75;;;5.10;99.90;;;;;;5049286;28;20056;-77
2020/12/07 03:07:34;;;;;;;54.45;24.17;;;5.10;99.90;;;;;;5028163;28;20482;-76
2020/12/07 03:10:00;;;;;;;45.53;21.10;;;5.10;99.90;;;;;;5018248;28;20040;-76
2020/12/07 03:12:46;;;;;;;49.22;22.38;;;5.10;99.90;;;;;;5038257;28;20036;-77
2020/12/07 03:15:12;;;;;;;49.92;20.75;;;5.00;99.90;;;;;;5051959;28;20041;-77
2020/12/07 03:17:57;;;;;;;54.40;24.52;;;5.00;99.90;;;;;;5034848;28;20510;-77
2020/12/07 03:20:23;;;;;;;58.42;26.45;;;5.00;99.90;;;;;;5026124;28;20041;-77
2020/12/07 03:22:49;;;;;;;66.18;26.67;;;5.00;99.90;;;;;;5047753;28;20025;-77
2020/12/07 03:25:15;;;;;;;69.80;26.52;;;5.00;99.90;;;;;;5048340;28;20029;-77
2020/12/07 03:27:40;;;;;;;57.75;25.50;;;5.00;99.90;;;;;;5032636;28;20502;-77
2020/12/07 03:30:26;;;;;;;64.32;25.02;;;5.00;99.90;;;;;;5030225;28;20546;-77
2020/12/07 03:32:53;;;;;;;78.13;27.63;;;5.00;99.90;;;;;;5034874;28;20117;-76
2020/12/07 03:35:19;;;;;;;53.20;22.98;;;5.00;99.90;;;;;;5052103;28;20533;-76
2020/12/07 03:37:44;;;;;;;57.42;25.02;;;5.00;99.90;;;;;;5052287;28;20048;-76
2020/12/07 03:40:11;;;;;;;;;;;5.00;99.90;;;;;;5036642;28;20043;-76
2020/12/07 03:42:36;;;;;;;55.42;23.30;;;4.90;99.90;;;;;;5042106;28;20660;-76
2020/12/07 03:45:03;;;;;;;48.08;18.80;;;5.00;99.90;;;;;;5005224;28;20094;-76
2020/12/07 03:47:49;;;;;;;;;;;5.00;99.90;;;;;;5025683;28;20057;-76
2020/12/07 03:50:15;;;;;;;49.42;20.85;;;5.60;99.90;;;;;;5023185;28;19920;-77
2020/12/07 03:52:41;;;;;;;36.40;17.65;;;4.90;99.90;;;;;;5045544;28;20394;-75
2020/12/07 03:55:06;;;;;;;36.17;16.67;;;4.90;99.90;;;;;;5020444;28;20389;-77
2020/12/07 03:57:52;;;;;;;36.60;16.25;;;4.90;99.90;;;;;;5035818;28;20049;-76
2020/12/07 04:00:18;;;;;;;25.52;13.45;;;5.10;99.90;;;;;;5034204;28;20525;-76
2020/12/07 04:02:43;;;;;;;32.30;16.48;;;4.90;99.90;;;;;;5052111;28;20410;-77
2020/12/07 04:05:19;;;;;;;32.63;14.75;;;5.20;99.90;;;;;;5029388;28;20040;-75
2020/12/07 04:07:45;;;;;;;32.05;14.82;;;4.90;99.90;;;;;;5028247;28;20060;-76
2020/12/07 04:10:31;;;;;;;29.63;14.40;;;5.00;99.90;;;;;;5027198;28;20549;-76
2020/12/07 04:13:17;;;;;;;43.13;17.88;;;4.90;99.90;;;;;;5027441;28;20517;-76
2020/12/07 04:16:03;;;;;;;29.33;14.65;;;4.90;99.90;;;;;;5011574;28;20481;-76
2020/12/07 04:18:30;;;;;;;40.33;16.92;;;4.90;99.90;;;;;;5051529;28;20068;-77
2020/12/07 04:21:00;;;;;;;28.20;15.52;;;4.90;99.90;;;;;;5049477;28;20059;-77
2020/12/07 04:23:45;;;;;;;46.17;18.30;;;4.90;99.90;;;;;;5025530;28;20091;-74
2020/12/07 04:26:31;;;;;;;39.75;16.38;;;4.90;99.90;;;;;;5022647;28;20045;-78
2020/12/07 04:28:59;;;;;;;35.72;15.95;;;4.90;99.90;;;;;;5051291;28;20037;-76
2020/12/07 04:31:44;;;;;;;32.83;15.10;;;4.90;99.90;;;;;;5030822;28;20044;-75
2020/12/07 04:34:10;;;;;;;31.30;13.98;;;4.90;99.90;;;;;;5036019;28;20044;-75
2020/12/07 04:36:57;;;;;;;33.55;15.60;;;4.90;99.90;;;;;;5032150;28;20147;-76
2020/12/07 04:39:42;;;;;;;29.60;13.60;;;4.90;99.90;;;;;;5034685;28;20045;-76
2020/12/07 04:42:11;;;;;;;34.95;13.60;;;4.90;99.90;;;;;;5041676;28;20045;-75
2020/12/07 04:44:56;;;;;;;25.60;12.80;;;4.90;99.90;;;;;;5007920;28;20479;-76
2020/12/07 04:47:24;;;;;;;29.25;11.93;;;4.90;99.90;;;;;;5016610;28;20304;-75
2020/12/07 04:49:54;;;;;;;23.58;11.48;;;4.90;99.90;;;;;;5050940;28;20056;-76
2020/12/07 04:52:41;;;;;;;22.75;12.07;;;4.90;99.90;;;;;;5027779;28;20453;-76
2020/12/07 04:55:07;;;;;;;22.95;10.85;;;4.90;99.90;;;;;;5040615;28;20029;-75
2020/12/07 04:57:33;;;;;;;25.63;11.88;;;4.90;99.90;;;;;;5050523;28;20049;-76
2020/12/07 04:59:59;;;;;;;19.02;9.50;;;4.90;99.90;;;;;;5037446;28;20029;-75
2020/12/07 05:02:26;;;;;;;19.92;10.32;;;4.90;99.90;;;;;;5041154;28;20430;-77
2020/12/07 05:04:55;;;;;;;15.10;8.95;;;4.90;99.90;;;;;;5013553;28;20056;-77
2020/12/07 05:07:47;;;;;;;16.48;9.43;;;4.90;99.90;;;;;;5014077;28;20049;-78
2020/12/07 05:10:16;;;;;;;16.67;8.90;;;4.90;99.90;;;;;;5046434;28;20107;-76
2020/12/07 05:12:46;;;;;;;17.45;9.55;;;4.80;99.90;;;;;;5050320;28;20033;-76
2020/12/07 05:15:14;;;;;;;20.40;10.50;;;4.80;99.90;;;;;;5047409;28;20037;-77
2020/12/07 05:18:00;;;;;;;17.50;9.32;;;4.80;99.90;;;;;;5029024;28;20083;-77
2020/12/07 05:20:26;;;;;;;14.43;8.50;;;4.80;99.90;;;;;;5045548;28;20037;-77
2020/12/07 05:22:52;;;;;;;;;;;4.90;99.90;;;;;;5041298;28;20156;-77
2020/12/07 05:25:17;;;;;;;14.68;8.00;;;4.80;99.90;;;;;;5051893;28;20382;-77
2020/12/07 05:27:46;;;;;;;12.07;7.88;;;4.80;99.90;;;;;;5036747;28;20136;-78
2020/12/07 05:30:36;;;;;;;18.40;9.70;;;4.80;99.90;;;;;;5040326;28;20044;-77
2020/12/07 05:33:02;;;;;;;18.58;9.80;;;4.80;99.90;;;;;;5054220;28;20048;-76
2020/12/07 05:35:28;;;;;;;;;;;4.70;99.90;;;;;;5053184;28;20033;-77
2020/12/07 05:37:53;;;;;;;17.35;11.00;;;4.70;99.90;;;;;;5053811;28;19917;-76
2020/12/07 05:40:19;;;;;;;23.77;11.38;;;4.70;99.90;;;;;;5038249;28;20048;-76
2020/12/07 05:42:45;;;;;;;18.35;11.45;;;4.70;99.90;;;;;;5050288;28;20035;-76
2020/12/07 05:45:12;;;;;;;20.08;11.40;;;4.70;99.90;;;;;;5048157;28;20037;-76
2020/12/07 05:47:38;;;;;;;;;;;4.70;99.90;;;;;;5051730;28;20091;-76
2020/12/07 05:50:07;;;;;;;20.20;11.32;;;4.60;99.90;;;;;;5048051;28;19943;-76
2020/12/07 05:52:45;;;;;;;18.75;11.98;;;4.60;99.90;;;;;;5054632;28;20048;-76
2020/12/07 05:55:13;;;;;;;26.08;12.98;;;4.60;99.90;;;;;;5052963;28;20112;-76
2020/12/07 05:57:56;;;;;;;17.00;10.70;;;4.60;99.90;;;;;;5044971;28;20428;-76
2020/12/07 06:00:43;;;;;;;17.17;10.48;;;4.60;99.90;;;;;;5035524;28;20122;-76
2020/12/07 06:03:09;;;;;;;17.73;10.93;;;4.50;99.90;;;;;;5047503;28;20037;-76
2020/12/07 06:05:37;;;;;;;25.98;12.60;;;4.60;99.90;;;;;;5048497;28;20040;-77
2020/12/07 06:08:34;;;;;;;19.70;12.35;;;4.60;99.90;;;;;;5051894;28;20649;-76
2020/12/07 06:11:11;;;;;;;28.88;13.90;;;4.60;99.90;;;;;;5050212;28;20120;-76
2020/12/07 06:13:38;;;;;;;22.63;13.68;;;4.50;99.90;;;;;;5049767;28;20574;-77
2020/12/07 06:16:27;;;;;;;24.27;12.98;;;4.50;99.90;;;;;;5031185;28;20037;-77
2020/12/07 06:18:55;;;;;;;21.08;12.30;;;4.50;99.90;;;;;;5042808;28;20424;-76
2020/12/07 06:21:23;;;;;;;22.08;12.73;;;4.50;99.90;;;;;;5047610;28;20384;-76
2020/12/07 06:23:49;;;;;;;23.30;12.88;;;4.50;99.90;;;;;;5046483;28;20037;-75
2020/12/07 06:26:19;;;;;;;22.05;12.45;;;4.50;99.90;;;;;;5043936;28;20474;-76
2020/12/07 06:29:05;;;;;;;18.73;11.38;;;4.60;99.90;;;;;;5027085;28;20076;-76
2020/12/07 06:31:35;;;;;;;;;;;4.50;99.90;;;;;;5023508;28;20029;-77
2020/12/07 06:34:10;;;;;;;19.63;10.95;;;4.40;99.90;;;;;;5041183;28;19963;-76
2020/12/07 06:36:57;;;;;;;18.08;11.52;;;4.40;99.90;;;;;;5022382;28;20184;-76
2020/12/07 06:39:22;;;;;;;21.33;10.98;;;4.40;99.90;;;;;;5045562;28;20385;-76
2020/12/07 06:42:09;;;;;;;20.70;11.20;;;4.40;99.90;;;;;;5049119;28;20045;-77
2020/12/07 06:44:35;;;;;;;18.50;10.48;;;4.50;99.90;;;;;;5048857;28;20033;-76
2020/12/07 06:47:15;;;;;;;20.33;11.18;;;4.40;99.90;;;;;;5048999;28;20041;-77
2020/12/07 06:52:12;;;;;;;20.00;11.52;;;4.40;99.90;;;;;;5043912;28;20067;-76
2020/12/07 06:57:39;;;;;;;18.42;11.05;;;4.40;99.90;;;;;;5050147;28;20063;-76
2020/12/07 07:00:14;;;;;;;17.58;10.68;;;4.40;99.90;;;;;;5035758;28;20476;-76
2020/12/07 07:02:45;;;;;;;18.35;10.50;;;4.40;99.90;;;;;;5045343;28;20079;-76
2020/12/07 07:05:15;;;;;;;22.45;12.40;;;4.40;99.90;;;;;;5045996;28;20056;-76
2020/12/07 07:07:41;;;;;;;17.52;11.27;;;4.40;99.90;;;;;;5047630;28;20048;-76
2020/12/07 07:10:08;;;;;;;;;;;4.40;99.90;;;;;;5044076;28;20521;-76
2020/12/07 07:12:36;;;;;;;21.40;11.77;;;4.30;99.90;;;;;;5045225;28;20019;-76
2020/12/07 07:15:03;;;;;;;21.08;11.02;;;4.30;99.90;;;;;;5044539;28;20568;-76
2020/12/07 07:17:31;;;;;;;16.80;10.65;;;4.30;99.90;;;;;;5048515;28;20041;-76
2020/12/07 07:19:58;;;;;;;19.00;11.60;;;4.30;99.90;;;;;;5043739;28;20037;-76
2020/12/07 07:22:25;;;;;;;16.17;11.10;;;4.30;99.90;;;;;;5041651;28;20313;-76
2020/12/07 07:30:25;;;;;;;20.40;11.40;;;4.30;99.90;;;;;;5044682;28;20037;-76
2020/12/07 07:33:10;;;;;;;18.38;10.40;;;4.30;99.90;;;;;;5031913;28;20041;-77
2020/12/07 07:35:56;;;;;;;18.75;10.85;;;4.20;99.90;;;;;;5025289;28;20383;-78
2020/12/07 07:38:28;;;;;;;17.77;10.93;;;4.40;99.90;;;;;;5036970;28;20047;-77
2020/12/07 07:40:54;;;;;;;18.85;11.73;;;4.30;99.90;;;;;;5027410;28;20046;-77
2020/12/07 07:43:24;;;;;;;19.35;11.38;;;4.30;99.90;;;;;;5030451;28;20044;-76
2020/12/07 07:45:58;;;;;;;16.75;10.57;;;4.30;99.90;;;;;;5047221;28;20049;-75
2020/12/07 07:49:19;;;;;;;20.15;10.38;;;4.20;99.90;;;;;;5026267;28;20383;-76
2020/12/07 08:06:24;;;;;;;16.35;10.50;;;4.20;99.90;;;;;;5044089;28;20056;-76
2020/12/07 08:17:54;;;;;;;18.48;11.70;;;4.20;99.90;;;;;;5019794;28;20060;-76
2020/12/07 08:20:24;;;;;;;23.73;13.85;;;4.20;99.90;;;;;;5022425;28;20069;-76
2020/12/07 08:23:07;;;;;;;22.38;13.25;;;4.20;99.90;;;;;;5027981;28;20049;-77
2020/12/07 08:25:47;;;;;;;22.35;13.55;;;4.20;99.90;;;;;;5020121;28;20038;-77
2020/12/07 08:28:32;;;;;;;22.88;13.10;;;4.20;99.90;;;;;;5017806;28;20357;-77
2020/12/07 08:31:13;;;;;;;25.45;14.07;;;4.20;99.90;;;;;;5025631;28;20475;-77
2020/12/07 08:34:10;;;;;;;28.98;15.07;;;4.20;99.90;;;;;;5025042;28;20033;-81
2020/12/07 08:36:56;;;;;;;31.25;15.88;;;4.20;99.90;;;;;;5017751;28;20073;-78
2020/12/07 08:39:42;;;;;;;24.95;15.15;;;4.30;99.90;;;;;;5011459;28;20148;-77
2020/12/07 08:42:08;;;;;;;27.13;15.20;;;4.30;99.90;;;;;;5025817;28;20113;-77
2020/12/07 08:44:34;;;;;;;20.63;12.18;;;4.30;99.90;;;;;;5029113;28;20373;-77
2020/12/07 08:47:01;;;;;;;26.55;13.32;;;4.30;99.90;;;;;;5025729;28;20043;-77
2020/12/07 08:49:28;;;;;;;24.08;13.13;;;4.40;99.90;;;;;;5025583;28;20463;-77
2020/12/07 08:51:54;;;;;;;23.20;12.48;;;4.40;99.90;;;;;;5026097;28;20029;-77
2020/12/07 08:54:20;;;;;;;21.95;11.88;;;4.40;99.90;;;;;;5025304;28;20049;-78
2020/12/07 08:56:47;;;;;;;18.55;11.50;;;4.50;99.90;;;;;;5023851;28;20074;-78
2020/12/07 08:59:33;;;;;;;;;;;4.50;99.90;;;;;;5022198;28;20138;-78
2020/12/07 09:02:18;;;;;;;19.10;11.13;;;4.50;99.90;;;;;;5011945;28;20389;-78
2020/12/07 09:05:04;;;;;;;23.15;11.95;;;4.50;99.90;;;;;;5019140;28;20180;-79
2020/12/07 09:07:30;;;;;;;20.90;13.20;;;4.60;99.90;;;;;;5031784;28;20136;-79
2020/12/07 09:09:56;;;;;;;24.33;13.93;;;4.60;99.90;;;;;;5025663;28;20049;-79
2020/12/07 09:12:22;;;;;;;21.73;12.35;;;4.70;99.90;;;;;;5024872;28;20038;-79
2020/12/07 09:14:47;;;;;;;20.92;13.02;;;4.70;99.90;;;;;;5020104;28;20385;-79
2020/12/07 09:17:13;;;;;;;20.73;12.20;;;4.80;99.90;;;;;;5022959;28;20046;-80
2020/12/07 09:19:41;;;;;;;23.13;13.73;;;4.80;99.90;;;;;;5016870;28;20044;-79
2020/12/07 09:22:06;;;;;;;20.73;12.55;;;4.90;99.90;;;;;;5023004;28;20041;-79
2020/12/07 09:24:32;;;;;;;23.65;13.73;;;5.10;99.90;;;;;;5024216;28;20048;-79
2020/12/07 09:26:58;;;;;;;32.72;15.95;;;5.00;99.90;;;;;;5024343;28;20048;-79
2020/12/07 09:29:26;;;;;;;29.00;15.60;;;5.00;99.90;;;;;;5025722;28;20108;-79
2020/12/07 09:31:51;;;;;;;26.35;15.23;;;5.00;99.90;;;;;;5020338;28;20046;-80
2020/12/07 09:34:38;;;;;;;21.50;12.32;;;5.00;99.90;;;;;;5015913;28;20155;-80
2020/12/07 09:37:04;;;;;;;22.15;12.38;;;5.00;99.90;;;;;;5028524;28;20493;-80
2020/12/07 09:39:30;;;;;;;19.60;11.98;;;5.00;99.90;;;;;;5023711;28;20076;-80
2020/12/07 09:42:16;;;;;;;24.65;13.45;;;5.00;99.90;;;;;;5019491;28;20042;-79
2020/12/07 09:44:45;;;;;;;24.80;14.75;;;5.00;99.90;;;;;;5030233;28;20041;-80
2020/12/07 09:47:34;;;;;;;21.27;12.93;;;5.10;99.90;;;;;;5017118;28;20048;-80
2020/12/07 09:50:04;;;;;;;28.98;15.52;;;5.10;99.90;;;;;;5034102;28;20041;-79
2020/12/07 09:52:30;;;;;;;25.63;14.10;;;5.10;99.90;;;;;;5015366;28;20033;-79
2020/12/07 09:54:55;;;;;;;26.40;14.73;;;5.00;99.90;;;;;;5026255;28;20141;-79
2020/12/07 09:57:21;;;;;;;31.05;16.45;;;5.00;99.90;;;;;;4998130;28;20042;-79
2020/12/07 10:00:07;;;;;;;21.90;13.57;;;5.00;99.90;;;;;;5007950;28;20112;-80
2020/12/07 10:02:34;;;;;;;30.88;14.05;;;5.00;99.90;;;;;;5029857;28;20041;-80
2020/12/07 10:05:00;;;;;;;38.42;17.25;;;5.00;99.90;;;;;;5014064;28;20059;-79
2020/12/07 10:07:26;;;;;;;25.70;15.48;;;5.00;99.90;;;;;;5026657;28;20045;-79
2020/12/07 10:09:52;;;;;;;;;;;5.00;99.90;;;;;;5033999;28;20041;-79
2020/12/07 10:12:19;;;;;;;32.35;15.07;;;5.00;99.90;;;;;;5016173;28;19928;-80
2020/12/07 10:14:45;;;;;;;29.15;15.10;;;5.00;99.90;;;;;;5018444;28;20038;-80
2020/12/07 10:17:10;;;;;;;29.25;16.45;;;5.00;99.90;;;;;;5031764;28;20045;-79
2020/12/07 10:19:36;;;;;;;33.00;17.10;;;5.10;99.90;;;;;;5024236;28;20108;-79
2020/12/07 10:22:06;;;;;;;27.40;14.93;;;5.10;99.90;;;;;;5025975;28;20321;-79
2020/12/07 10:24:32;;;;;;;32.22;16.58;;;5.10;99.90;;;;;;5021957;28;20471;-80
2020/12/07 10:26:58;;;;;;;26.35;13.70;;;5.10;99.90;;;;;;5019772;28;20041;-80
2020/12/07 10:29:24;;;;;;;25.65;12.25;;;5.20;99.90;;;;;;5027418;28;20128;-79
2020/12/07 10:31:50;;;;;;;27.15;13.40;;;5.20;99.90;;;;;;5043500;28;20053;-80
2020/12/07 10:34:37;;;;;;;24.05;12.18;;;5.30;99.90;;;;;;5020581;28;20103;-80
2020/12/07 10:37:07;;;;;;;19.35;10.40;;;5.30;99.90;;;;;;5044787;28;20218;-79
2020/12/07 10:39:40;;;;;;;23.30;8.73;;;5.40;99.90;;;;;;5038678;28;20044;-79
2020/12/07 10:42:31;;;;;;;18.80;7.63;;;5.50;99.90;;;;;;5033437;28;20045;-78
2020/12/07 10:44:57;;;;;;;12.35;7.28;;;5.60;99.90;;;;;;5026123;28;20037;-79
2020/12/07 10:47:23;;;;;;;12.65;6.50;;;5.70;99.90;;;;;;5035976;28;20591;-80
2020/12/07 10:49:49;;;;;;;9.00;5.05;;;5.50;99.90;;;;;;5026272;28;20045;-80
2020/12/07 10:52:15;;;;;;;9.40;3.72;;;5.90;99.90;;;;;;5027196;28;20474;-80
2020/12/07 10:54:41;;;;;;;7.18;3.97;;;6.00;99.90;;;;;;5028591;28;20041;-80
2020/12/07 10:57:27;;;;;;;8.18;3.20;;;6.00;99.90;;;;;;5021489;28;20132;-80
2020/12/07 10:59:52;;;;;;;5.82;3.25;;;6.10;99.90;;;;;;5014628;28;20531;-80
2020/12/07 11:02:38;;;;;;;5.60;3.33;;;6.10;99.90;;;;;;5005657;28;20045;-80
2020/12/07 11:05:05;;;;;;;6.30;3.67;;;6.20;99.90;;;;;;5016672;28;20037;-80
2020/12/07 11:07:31;;;;;;;6.63;3.70;;;6.20;99.90;;;;;;5031136;28;20057;-79
2020/12/07 11:10:17;;;;;;;6.43;2.90;;;6.20;99.90;;;;;;5030381;28;20041;-80
2020/12/07 11:12:46;;;;;;;7.90;3.25;;;6.20;99.90;;;;;;5044817;28;20486;-80
2020/12/07 11:15:12;;;;;;;4.72;2.78;;;6.20;99.90;;;;;;5046475;28;20029;-80
2020/12/07 11:17:57;;;;;;;7.13;3.90;;;6.20;99.90;;;;;;5031054;28;20045;-80
2020/12/07 11:20:43;;;;;;;7.88;3.42;;;6.20;99.90;;;;;;5026660;28;20041;-80
2020/12/07 11:23:29;;;;;;;6.30;3.35;;;6.20;99.90;;;;;;5028231;28;20049;-80
2020/12/07 11:25:55;;;;;;;5.65;3.25;;;6.20;99.90;;;;;;5043150;28;20025;-80
2020/12/07 11:28:21;;;;;;;5.75;3.40;;;6.30;99.90;;;;;;5045840;28;20037;-79
2020/12/07 11:30:47;;;;;;;5.35;3.35;;;6.30;99.90;;;;;;5043118;28;20033;-80
2020/12/07 11:33:12;;;;;;;6.15;3.78;;;6.30;99.90;;;;;;5027640;28;20059;-80
2020/12/07 11:35:38;;;;;;;7.38;3.47;;;6.30;99.90;;;;;;5037060;28;20033;-80
2020/12/07 11:38:26;;;;;;;9.48;4.22;;;6.30;99.90;;;;;;5027364;28;20079;-80
2020/12/07 11:41:37;;;;;;;7.72;3.30;;;6.30;99.90;;;;;;5018295;28;20045;-79
2020/12/07 11:44:21;;;;;;;6.72;4.07;;;6.40;99.90;;;;;;5040914;28;20494;-79
2020/12/07 11:46:51;;;;;;;5.40;3.22;;;6.40;99.90;;;;;;5045874;28;20064;-79
2020/12/07 11:49:17;;;;;;;6.57;2.80;;;6.40;99.90;;;;;;5043126;28;20059;-79
2020/12/07 11:52:06;;;;;;;6.30;3.15;;;6.40;99.90;;;;;;5018411;28;20418;-79
2020/12/07 11:54:33;;;;;;;7.38;3.20;;;6.40;99.90;;;;;;5038546;28;20038;-80
2020/12/07 11:57:18;;;;;;;7.55;3.08;;;6.50;99.90;;;;;;5021291;28;20079;-79
2020/12/07 12:00:04;;;;;;;7.13;2.70;;;6.60;99.90;;;;;;5017201;28;20373;-80
2020/12/07 12:02:30;;;;;;;5.32;2.42;;;6.60;99.90;;;;;;5022515;28;20042;-79
2020/12/07 12:05:17;;;;;;;4.75;2.30;;;6.60;99.90;;;;;;5020490;28;20045;-79
2020/12/07 12:08:03;;;;;;;4.82;2.58;;;6.50;99.90;;;;;;5022979;28;20260;-80
2020/12/07 12:10:28;;;;;;;5.28;2.53;;;6.50;99.90;;;;;;5045986;28;20033;-81
2020/12/07 12:12:54;;;;;;;3.63;1.98;;;6.50;99.90;;;;;;5043159;28;20147;-81
2020/12/07 12:15:40;;;;;;;4.05;2.05;;;6.60;99.90;;;;;;5007850;28;20047;-82
2020/12/07 12:18:06;;;;;;;4.60;2.00;;;6.50;99.90;;;;;;5028997;28;20036;-81
2020/12/07 12:20:32;;;;;;;4.47;2.10;;;6.40;99.90;;;;;;5028733;28;20118;-82
2020/12/07 12:23:18;;;;;;;4.18;2.20;;;6.40;99.90;;;;;;5019820;28;20098;-82
2020/12/07 12:26:04;;;;;;;5.07;2.70;;;6.40;99.90;;;;;;5026250;28;20049;-81
2020/12/07 12:28:50;;;;;;;5.88;3.00;;;6.40;99.90;;;;;;5044983;28;20053;-81
2020/12/07 12:31:36;;;;;;;4.85;2.30;;;6.40;99.90;;;;;;5024573;28;20068;-80
2020/12/07 12:34:02;;;;;;;9.25;2.35;;;6.40;99.90;;;;;;5046074;28;20032;-81
2020/12/07 12:36:49;;;;;;;5.28;2.30;;;6.40;99.90;;;;;;5031922;28;20053;-80
2020/12/07 12:39:35;;;;;;;3.92;1.80;;;6.40;99.90;;;;;;5032810;28;20037;-79
2020/12/07 12:42:21;;;;;;;4.63;2.10;;;6.40;99.90;;;;;;5022036;28;20453;-80
2020/12/07 12:44:47;;;;;;;2.88;1.95;;;6.40;99.90;;;;;;5014257;28;20045;-79
2020/12/07 12:47:14;;;;;;;5.60;2.58;;;6.40;99.90;;;;;;5028389;28;20505;-80
2020/12/07 12:50:03;;;;;;;5.85;2.00;;;6.40;99.90;;;;;;5017238;28;20383;-80
2020/12/07 12:52:29;;;;;;;4.03;2.45;;;6.40;99.90;;;;;;5044885;28;20039;-80
2020/12/07 12:54:55;;;;;;;4.53;2.15;;;6.40;99.90;;;;;;5031991;28;20069;-80
2020/12/07 12:57:21;;;;;;;4.28;2.20;;;6.40;99.90;;;;;;5042323;28;20492;-80
2020/12/07 12:59:47;;;;;;;3.85;2.10;;;6.50;99.90;;;;;;5046809;28;20127;-80
2020/12/07 13:02:12;;;;;;;3.95;2.45;;;6.40;99.90;;;;;;5043442;28;20098;-79
2020/12/07 13:04:38;;;;;;;5.60;2.40;;;6.50;99.90;;;;;;5024913;28;20049;-79
2020/12/07 13:07:24;;;;;;;4.82;2.30;;;6.50;99.90;;;;;;5012851;28;20061;-79
2020/12/07 13:09:50;;;;;;;6.75;2.20;;;6.50;99.90;;;;;;5045616;28;20040;-79
2020/12/07 13:12:36;;;;;;;5.43;1.88;;;6.50;99.90;;;;;;5009690;28;20281;-79
2020/12/07 13:15:03;;;;;;;8.82;2.40;;;6.50;99.90;;;;;;5027640;28;20052;-79
2020/12/07 13:18:10;;;;;;;5.32;2.05;;;6.50;99.90;;;;;;5004996;28;20049;-80
2020/12/07 13:21:04;;;;;;;6.47;2.13;;;6.50;99.90;;;;;;5029962;28;20051;-79
2020/12/07 13:23:44;;;;;;;5.53;2.25;;;6.50;99.90;;;;;;5010572;28;20140;-80
2020/12/07 13:28:55;;;;;;;5.03;2.30;;;6.50;99.90;;;;;;5041239;28;20045;-78
2020/12/07 13:31:41;;;;;;;5.82;2.58;;;6.50;99.90;;;;;;5028090;28;20045;-78
2020/12/07 13:34:07;;;;;;;4.55;2.38;;;6.50;99.90;;;;;;5043870;28;20033;-78
2020/12/07 13:36:33;;;;;;;4.43;2.42;;;6.40;99.90;;;;;;5015298;28;20044;-78
2020/12/07 13:39:19;;;;;;;4.72;2.63;;;6.50;99.90;;;;;;4995577;28;20148;-78
2020/12/07 13:41:48;;;;;;;5.60;3.42;;;6.50;99.90;;;;;;5018658;28;20125;-78
2020/12/07 13:44:34;;;;;;;5.88;3.10;;;7.00;99.90;;;;;;5005802;28;20052;-78
2020/12/07 13:47:00;;;;;;;6.18;3.53;;;6.50;99.90;;;;;;5032316;28;20032;-78
2020/12/07 13:49:45;;;;;;;6.50;3.13;;;6.40;99.90;;;;;;5031289;28;20041;-78
2020/12/07 13:52:13;;;;;;;5.90;2.70;;;6.50;99.90;;;;;;5023734;28;20056;-78